Time;durP1;ratioP1;P1;durP2;ratioP2;P2;SDS_P1;SDS_P2;PMS_P1;PMS_P2;Temp;Humidity;BMP_temperature;BMP_pressure;BME280_temperature;BME280_humidity;BME280_pressure;Samples;Min_cycle;Max_cycle;Signal;HPM_P1;HPM_P2
2020/12/23 00:02:04;;;;;;;14.23;9.93;;;;;;;12.10;100.00;101090.87;1808874;77;938878;-78
2020/12/23 00:04:36;;;;;;;14.17;9.57;;;;;;;12.08;100.00;101088.09;1821042;77;938635;-78
2020/12/23 00:07:14;;;;;;;13.72;8.65;;;;;;;11.97;100.00;101090.69;1808958;77;938591;-79
2020/12/23 00:09:40;;;;;;;17.67;9.47;;;;;;;12.01;100.00;101088.99;1819460;78;936687;-78
2020/12/23 00:12:10;;;;;;;12.53;9.47;;;;;;;11.98;100.00;101089.58;1808639;77;938898;-79
2020/12/23 00:14:40;;;;;;;15.00;9.80;;;;;;;11.99;100.00;101090.66;1820914;77;936834;-78
2020/12/23 00:17:10;;;;;;;13.43;9.23;;;;;;;11.93;100.00;101084.04;1808987;78;938611;-78
2020/12/23 00:19:40;;;;;;;17.07;9.83;;;;;;;11.88;100.00;101085.45;1820794;77;936929;-78
2020/12/23 00:22:10;;;;;;;16.67;9.67;;;;;;;11.75;100.00;101089.16;1808973;77;937654;-77
2020/12/23 00:24:40;;;;;;;11.67;8.50;;;;;;;11.92;100.00;101080.98;1817197;77;936870;-78
2020/12/23 00:27:10;;;;;;;14.00;9.17;;;;;;;12.00;100.00;101085.93;1804630;78;938821;-77
2020/12/23 00:29:40;;;;;;;12.93;10.00;;;;;;;12.03;100.00;101079.22;1819988;77;936923;-78
2020/12/23 00:32:10;;;;;;;15.37;9.60;;;;;;;12.12;100.00;101073.30;1808995;77;940928;-78
2020/12/23 00:34:39;;;;;;;15.90;9.93;;;;;;;12.09;100.00;101078.63;1820837;77;936714;-78
2020/12/23 00:37:09;;;;;;;14.13;9.73;;;;;;;11.99;100.00;101076.74;1808776;77;938614;-78
2020/12/23 00:39:40;;;;;;;15.50;10.00;;;;;;;12.16;100.00;101075.78;1820616;78;936772;-78
2020/12/23 00:42:10;;;;;;;13.00;9.17;;;;;;;12.17;100.00;101073.83;1808617;77;940860;-79
2020/12/23 00:44:40;;;;;;;20.23;10.03;;;;;;;12.09;100.00;101080.86;1820757;78;936782;-76
2020/12/23 00:47:10;;;;;;;14.50;9.77;;;;;;;12.05;100.00;101076.99;1809092;77;940998;-76
2020/12/23 00:49:40;;;;;;;14.17;9.33;;;;;;;12.11;100.00;101070.80;1819708;78;936756;-76
2020/12/23 00:52:10;;;;;;;12.70;8.33;;;;;;;12.18;100.00;101067.98;1807875;78;938630;-78
2020/12/23 00:54:39;;;;;;;11.17;8.67;;;;;;;12.25;100.00;101073.20;1820853;77;936806;-76
2020/12/23 00:57:10;;;;;;;13.33;8.93;;;;;;;12.22;100.00;101066.83;1808942;78;938795;-77
2020/12/23 00:59:39;;;;;;;12.67;9.00;;;;;;;12.25;100.00;101064.30;1819487;78;936831;-77
2020/12/23 01:02:09;;;;;;;11.93;8.27;;;;;;;12.31;100.00;101064.53;1809114;77;938739;-77
2020/12/23 01:04:39;;;;;;;14.20;8.30;;;;;;;12.32;100.00;101065.37;1821088;77;936689;-77
2020/12/23 01:07:09;;;;;;;10.88;8.10;;;;;;;12.45;100.00;101061.08;1808741;77;948424;-77
2020/12/23 01:09:39;;;;;;;11.10;7.93;;;;;;;12.55;100.00;101053.99;1820948;77;936755;-77
2020/12/23 01:12:09;;;;;;;10.43;7.95;;;;;;;12.45;100.00;101046.55;1809132;77;938751;-77
2020/12/23 01:14:38;;;;;;;11.13;7.70;;;;;;;12.51;100.00;101049.58;1820654;78;936785;-78
2020/12/23 01:17:08;;;;;;;12.47;7.08;;;;;;;12.52;100.00;101046.23;1808972;78;938611;-76
2020/12/23 01:19:38;;;;;;;11.90;7.53;;;;;;;12.51;100.00;101044.56;1820441;78;936757;-76
2020/12/23 01:22:08;;;;;;;11.40;7.47;;;;;;;12.56;100.00;101048.70;1809242;77;938820;-77
2020/12/23 01:24:38;;;;;;;9.97;7.47;;;;;;;12.52;100.00;101044.84;1820729;78;937035;-77
2020/12/23 01:27:08;;;;;;;10.27;7.50;;;;;;;12.50;100.00;101045.12;1809068;77;946314;-77
2020/12/23 01:29:38;;;;;;;10.60;7.27;;;;;;;12.56;100.00;101046.74;1820648;77;936796;-77
2020/12/23 01:32:07;;;;;;;12.28;7.80;;;;;;;12.48;100.00;101033.45;1808467;77;938688;-79
2020/12/23 01:34:37;;;;;;;12.47;6.70;;;;;;;12.50;100.00;101029.80;1820793;77;937054;-77
2020/12/23 01:37:07;;;;;;;10.57;6.93;;;;;;;12.57;100.00;101026.68;1808612;77;938545;-78
2020/12/23 01:39:37;;;;;;;13.63;7.37;;;;;;;12.58;100.00;101036.12;1821095;77;936727;-77
2020/12/23 01:42:07;;;;;;;11.97;7.17;;;;;;;12.60;100.00;101032.48;1808514;77;942029;-77
2020/12/23 01:44:39;;;;;;;9.80;6.40;;;;;;;12.65;100.00;101035.79;1820814;78;936740;-77
2020/12/23 01:47:12;;;;;;;9.63;6.97;;;;;;;12.62;100.00;101028.02;1808955;77;936621;-77
2020/12/23 01:49:42;;;;;;;8.77;6.90;;;;;;;12.60;100.00;101021.91;1820073;77;934704;-77
2020/12/23 01:52:12;;;;;;;8.83;6.60;;;;;;;12.59;100.00;101019.67;1808762;77;936831;-78
2020/12/23 01:54:42;;;;;;;9.10;6.73;;;;;;;12.52;100.00;101023.94;1820814;78;934613;-77
2020/12/23 01:57:12;;;;;;;12.47;6.25;;;;;;;12.49;100.00;101028.72;1808824;77;936527;-78
2020/12/23 01:59:45;;;;;;;7.97;5.80;;;;;;;12.49;100.00;101021.19;1820751;77;936769;-80
2020/12/23 02:02:35;;;;;;;8.80;5.40;;;;;;;12.47;100.00;101033.17;1819258;78;936537;-79
2020/12/23 02:05:07;;;;;;;9.08;5.47;;;;;;;12.56;100.00;101024.45;1809064;77;936553;-78
2020/12/23 02:07:39;;;;;;;7.73;5.00;;;;;;;12.58;100.00;101024.97;1821408;77;934718;-79
2020/12/23 02:10:10;;;;;;;8.40;4.95;;;;;;;12.62;100.00;101013.50;1809088;77;936804;-78
2020/12/23 02:12:39;;;;;;;6.93;4.70;;;;;;;12.58;100.00;101009.64;1820108;77;934616;-78
2020/12/23 02:15:11;;;;;;;6.57;4.50;;;;;;;12.54;100.00;101000.22;1808781;78;936782;-78
2020/12/23 02:17:42;;;;;;;6.37;4.67;;;;;;;12.56;100.00;101006.89;1820583;77;934738;-78
2020/12/23 02:20:16;;;;;;;6.70;4.60;;;;;;;12.50;100.00;101007.50;1809433;77;937100;-78
2020/12/23 02:22:47;;;;;;;5.63;4.77;;;;;;;12.50;100.00;101011.68;1819817;77;934737;-78
2020/12/23 02:25:17;;;;;;;7.13;4.60;;;;;;;12.50;100.00;101010.84;1820749;77;936612;-79
2020/12/23 02:27:47;;;;;;;5.67;3.80;;;;;;;12.47;100.00;101012.84;1820823;77;934704;-78
2020/12/23 02:30:17;;;;;;;7.17;4.63;;;;;;;12.49;100.00;101013.39;1820743;77;936675;-78
2020/12/23 02:32:47;;;;;;;6.10;4.57;;;;;;;12.54;100.00;101007.73;1820850;77;934653;-77
2020/12/23 02:35:17;;;;;;;5.10;3.87;;;;;;;12.53;100.00;101006.94;1820789;77;936548;-77
2020/12/23 02:37:47;;;;;;;6.50;4.27;;;;;;;12.63;100.00;101012.38;1820994;77;934617;-77
2020/12/23 02:40:17;;;;;;;6.43;4.13;;;;;;;12.55;100.00;101015.81;1821155;77;936730;-77
2020/12/23 02:42:47;;;;;;;5.27;3.80;;;;;;;12.51;100.00;101011.96;1821097;78;934712;-77
2020/12/23 02:45:17;;;;;;;3.60;3.20;;;;;;;12.53;100.00;101015.30;1820835;77;936747;-77
2020/12/23 02:47:47;;;;;;;4.50;3.43;;;;;;;12.52;100.00;101007.22;1820670;78;934890;-77
2020/12/23 02:50:17;;;;;;;6.00;3.67;;;;;;;12.57;100.00;101005.22;1820212;78;936535;-77
2020/12/23 02:52:47;;;;;;;4.43;3.10;;;;;;;12.48;100.00;101007.55;1819512;77;934827;-77
2020/12/23 02:55:17;;;;;;;5.53;3.33;;;;;;;12.49;100.00;101006.42;1820954;77;936483;-77
2020/12/23 02:57:46;;;;;;;4.03;3.00;;;;;;;12.50;100.00;100993.58;1817580;77;934992;-77
2020/12/23 03:00:16;;;;;;;4.23;3.40;;;;;;;12.47;100.00;100981.63;1820924;77;936557;-77
2020/12/23 03:02:46;;;;;;;5.10;3.33;;;;;;;12.45;100.00;100969.14;1820875;78;934665;-76
2020/12/23 03:05:16;;;;;;;5.70;3.67;;;;;;;12.45;100.00;100974.71;1820973;78;936746;-76
2020/12/23 03:07:46;;;;;;;5.37;3.43;;;;;;;12.30;100.00;100969.55;1819717;77;934795;-77
2020/12/23 03:10:16;;;;;;;5.77;3.47;;;;;;;12.17;100.00;100962.44;1820867;78;936609;-76
2020/12/23 03:12:46;;;;;;;3.77;3.37;;;;;;;12.17;100.00;100961.05;1820995;77;934659;-77
2020/12/23 03:15:15;;;;;;;3.80;3.37;;;;;;;12.04;100.00;100968.69;1820662;77;936632;-76
2020/12/23 03:17:45;;;;;;;4.80;3.20;;;;;;;12.06;100.00;100965.06;1820844;77;934736;-76
2020/12/23 03:20:15;;;;;;;5.37;3.17;;;;;;;12.14;100.00;100965.27;1807996;77;1040699;-76
2020/12/23 03:22:45;;;;;;;4.43;3.60;;;;;;;12.21;100.00;100960.17;1820949;77;936705;-76
2020/12/23 03:25:15;;;;;;;5.43;3.50;;;;;;;12.16;100.00;100958.82;1808953;77;936714;-77
2020/12/23 03:27:44;;;;;;;4.53;3.47;;;;;;;12.17;100.00;100954.09;1820852;77;934658;-77
2020/12/23 03:30:14;;;;;;;3.87;3.20;;;;;;;12.20;100.00;100944.58;1808488;77;935520;-77
2020/12/23 03:32:44;;;;;;;6.57;3.40;;;;;;;12.20;100.00;100939.01;1820899;77;934660;-77
2020/12/23 03:35:16;;;;;;;5.13;3.57;;;;;;;12.18;100.00;100940.44;1808959;77;936525;-77
2020/12/23 03:37:46;;;;;;;4.57;3.60;;;;;;;12.29;100.00;100935.02;1820969;77;934694;-77
2020/12/23 03:40:15;;;;;;;4.70;3.70;;;;;;;12.33;100.00;100939.70;1820127;77;935714;-77
2020/12/23 03:42:45;;;;;;;6.77;3.73;;;;;;;12.40;100.00;100935.20;1820900;77;934731;-76
2020/12/23 03:45:15;;;;;;;5.13;4.20;;;;;;;12.37;100.00;100941.33;1809330;77;936634;-77
2020/12/23 03:47:45;;;;;;;5.70;3.80;;;;;;;12.35;100.00;100935.80;1820102;78;934575;-77
2020/12/23 03:50:15;;;;;;;4.80;3.83;;;;;;;12.27;100.00;100933.11;1809092;77;936757;-77
2020/12/23 03:52:45;;;;;;;6.17;4.00;;;;;;;12.42;100.00;100923.17;1820886;78;934655;-76
2020/12/23 03:55:15;;;;;;;6.60;3.90;;;;;;;12.38;100.00;100913.75;1808861;77;936557;-76
2020/12/23 03:57:45;;;;;;;7.47;4.17;;;;;;;12.32;100.00;100916.34;1819123;78;933824;-77
2020/12/23 04:00:15;;;;;;;6.97;4.00;;;;;;;12.33;100.00;100914.64;1808964;77;936647;-77
2020/12/23 04:02:45;;;;;;;5.83;3.63;;;;;;;12.31;100.00;100906.33;1820967;77;934642;-76
2020/12/23 04:05:15;;;;;;;5.30;3.73;;;;;;;12.28;100.00;100899.38;1808565;77;936722;-77
2020/12/23 04:07:44;;;;;;;5.67;3.73;;;;;;;12.32;100.00;100891.28;1820864;78;934636;-77
2020/12/23 04:10:15;;;;;;;5.83;3.90;;;;;;;12.42;100.00;100893.93;1809117;77;936827;-78
2020/12/23 04:12:45;;;;;;;5.63;3.60;;;;;;;12.42;100.00;100898.11;1820895;77;934680;-79
2020/12/23 04:15:15;;;;;;;5.67;4.00;;;;;;;12.32;100.00;100897.66;1808676;78;936852;-79
2020/12/23 04:17:45;;;;;;;6.03;3.80;;;;;;;12.37;100.00;100900.94;1820594;77;934511;-78
2020/12/23 04:20:14;;;;;;;6.40;4.07;;;;;;;12.41;100.00;100897.83;1808826;77;936744;-78
2020/12/23 04:22:44;;;;;;;7.70;3.97;;;;;;;12.36;100.00;100897.08;1820889;77;934681;-78
2020/12/23 04:25:14;;;;;;;5.53;3.47;;;;;;;12.36;100.00;100893.73;1809341;77;936629;-77
2020/12/23 04:27:44;;;;;;;7.28;3.62;;;;;;;12.43;100.00;100885.02;1820779;78;934888;-77
2020/12/23 04:30:14;;;;;;;8.23;3.60;;;;;;;12.45;100.00;100881.37;1808986;77;935428;-77
2020/12/23 04:32:44;;;;;;;8.30;4.23;;;;;;;12.37;100.00;100877.83;1820854;77;934886;-77
2020/12/23 04:35:14;;;;;;;6.23;3.90;;;;;;;12.41;100.00;100871.37;1808745;78;936675;-77
2020/12/23 04:37:43;;;;;;;6.83;3.83;;;;;;;12.48;100.00;100873.81;1821396;77;935060;-77
2020/12/23 04:40:13;;;;;;;6.57;3.73;;;;;;;12.50;100.00;100874.33;1808869;77;936840;-77
2020/12/23 04:42:43;;;;;;;7.83;3.50;;;;;;;12.54;100.00;100874.83;1820895;77;934668;-77
2020/12/23 04:45:13;;;;;;;5.30;3.43;;;;;;;12.42;100.00;100861.05;1808830;77;936597;-77
2020/12/23 04:47:44;;;;;;;8.23;3.60;;;;;;;12.41;100.00;100851.06;1821025;77;934901;-78
2020/12/23 04:50:17;;;;;;;6.27;3.97;;;;;;;12.35;100.00;100848.90;1808853;77;936911;-78
2020/12/23 04:52:47;;;;;;;5.30;3.50;;;;;;;12.35;100.00;100851.69;1820831;77;934699;-78
2020/12/23 04:55:17;;;;;;;7.67;4.27;;;;;;;12.33;100.00;100855.31;1820799;78;936544;-78
2020/12/23 04:57:48;;;;;;;5.67;3.77;;;;;;;12.37;100.00;100850.80;1820929;77;934989;-77
2020/12/23 05:00:18;;;;;;;5.03;3.40;;;;;;;12.29;100.00;100842.55;1755311;78;936659;-77
2020/12/23 05:02:48;;;;;;;6.93;3.83;;;;;;;12.29;100.00;100847.28;1738328;80;934828;-78
2020/12/23 05:05:18;;;;;;;7.67;4.00;;;;;;;12.17;100.00;100848.27;1738310;80;936790;-77
2020/12/23 05:07:50;;;;;;;5.43;3.87;;;;;;;12.16;100.00;100848.83;1738300;80;934685;-78
2020/12/23 05:10:20;;;;;;;7.13;4.40;;;;;;;12.20;100.00;100851.28;1738295;80;936633;-78
2020/12/23 05:12:50;;;;;;;5.67;3.73;;;;;;;12.24;100.00;100847.34;1738221;80;934715;-78
2020/12/23 05:15:20;;;;;;;5.97;3.03;;;;;;;12.24;100.00;100848.17;1738285;80;936753;-77
2020/12/23 05:17:52;;;;;;;4.05;3.52;;;;;;;12.32;100.00;100847.52;1735726;80;935759;-77
2020/12/23 05:20:22;;;;;;;4.97;3.57;;;;;;;12.40;100.00;100834.08;1774714;77;936517;-78
2020/12/23 05:22:53;;;;;;;3.47;2.90;;;;;;;12.35;100.00;100834.97;1761111;79;937043;-78
2020/12/23 05:25:23;;;;;;;5.23;2.70;;;;;;;12.40;100.00;100836.30;1772703;79;936642;-77
2020/12/23 05:27:53;;;;;;;4.20;2.53;;;;;;;12.40;100.00;100839.09;1761180;79;936664;-77
2020/12/23 05:30:24;;;;;;;4.03;2.70;;;;;;;12.44;100.00;100845.72;1772580;79;936610;-77
2020/12/23 05:32:56;;;;;;;3.10;2.53;;;;;;;12.55;100.00;100845.84;1761043;79;942510;-77
2020/12/23 05:35:27;;;;;;;4.03;2.20;;;;;;;12.65;100.00;100846.28;1772772;79;936644;-77
2020/12/23 05:37:59;;;;;;;4.13;2.47;;;;;;;12.64;100.00;100826.50;1761171;79;936578;-77
2020/12/23 05:40:28;;;;;;;5.43;2.67;;;;;;;12.63;100.00;100819.27;1772718;79;936551;-78
2020/12/23 05:42:59;;;;;;;7.60;2.62;;;;;;;12.56;100.00;100816.03;1761289;79;936664;-77
2020/12/23 05:45:29;;;;;;;3.00;2.70;;;;;;;12.60;100.00;100815.70;1772732;79;936779;-78
2020/12/23 05:47:59;;;;;;;3.30;2.55;;;;;;;12.53;100.00;100806.89;1761191;79;937033;-78
2020/12/23 05:50:31;;;;;;;3.13;2.37;;;;;;;12.44;100.00;100805.89;1772611;80;936641;-78
2020/12/23 05:53:01;;;;;;;3.85;2.20;;;;;;;12.43;100.00;100802.27;1761185;79;936815;-78
2020/12/23 05:55:32;;;;;;;4.67;2.50;;;;;;;12.49;100.00;100809.45;1772703;79;936757;-78
2020/12/23 05:58:01;;;;;;;4.17;2.10;;;;;;;12.54;100.00;100807.95;1761196;79;936573;-77
2020/12/23 06:00:31;;;;;;;4.93;2.40;;;;;;;12.59;100.00;100806.50;1772698;79;936655;-78
2020/12/23 06:03:06;;;;;;;4.33;2.10;;;;;;;12.59;100.00;100803.72;1761159;79;936696;-77
2020/12/23 06:05:39;;;;;;;3.27;2.00;;;;;;;12.55;100.00;100811.58;1772580;79;934918;-78
2020/12/23 06:08:11;;;;;;;2.00;1.67;;;;;;;12.55;100.00;100824.12;1761024;79;936982;-78
2020/12/23 06:10:44;;;;;;;4.63;1.93;;;;;;;12.51;100.00;100818.32;1772817;79;934639;-78
2020/12/23 06:13:15;;;;;;;4.10;1.70;;;;;;;12.54;100.00;100809.91;1761025;79;936683;-77
2020/12/23 06:15:49;;;;;;;3.63;1.37;;;;;;;12.53;100.00;100793.79;1772898;79;934886;-77
2020/12/23 06:18:21;;;;;;;2.37;1.30;;;;;;;12.56;100.00;100800.70;1771590;79;936614;-78
2020/12/23 06:20:52;;;;;;;4.80;1.47;;;;;;;12.50;100.00;100803.28;1766444;79;937494;-77
2020/12/23 06:23:27;;;;;;;1.47;1.33;;;;;;;12.55;100.00;100791.52;1783483;78;936802;-78
2020/12/23 06:26:00;;;;;;;2.03;1.30;;;;;;;12.64;100.00;100786.09;1761222;79;936910;-78
2020/12/23 06:28:31;;;;;;;2.60;1.27;;;;;;;12.70;100.00;100784.34;1772681;79;936640;-78
2020/12/23 06:31:03;;;;;;;1.95;1.37;;;;;;;12.65;100.00;100784.41;1761243;79;936887;-77
2020/12/23 06:33:33;;;;;;;6.97;1.50;;;;;;;12.59;100.00;100788.39;1772793;79;936834;-78
2020/12/23 06:36:12;;;;;;;3.50;1.50;;;;;;;12.53;100.00;100781.25;1761248;79;936626;-79
2020/12/23 06:38:42;;;;;;;3.53;1.60;;;;;;;12.52;100.00;100772.62;1772879;79;934507;-79
2020/12/23 06:41:14;;;;;;;3.83;1.40;;;;;;;12.30;100.00;100765.40;1761187;79;936573;-79
2020/12/23 06:43:58;;;;;;;2.43;1.40;;;;;;;12.30;100.00;100765.40;1772906;79;934772;-78
2020/12/23 06:46:29;;;;;;;3.83;1.50;;;;;;;12.29;100.00;100768.73;1772757;79;936607;-77
2020/12/23 06:49:15;;;;;;;4.25;1.50;;;;;;;12.04;100.00;100763.50;1761618;79;935499;-78
2020/12/23 06:51:45;;;;;;;3.03;1.57;;;;;;;12.02;100.00;100769.11;1772806;79;934753;-78
2020/12/23 06:54:36;;;;;;;5.47;1.93;;;;;;;11.98;100.00;100777.79;1761078;79;936678;-77
2020/12/23 06:57:06;;;;;;;5.10;2.00;;;;;;;11.85;100.00;100770.98;1759704;79;935621;-78
2020/12/23 06:59:48;;;;;;;3.20;1.98;;;;;;;11.82;100.00;100763.20;1772796;79;934865;-77
2020/12/23 07:02:18;;;;;;;2.80;2.20;;;;;;;11.92;100.00;100759.48;1772735;79;936656;-77
2020/12/23 07:04:50;;;;;;;4.23;2.00;;;;;;;12.00;100.00;100752.70;1772772;79;934795;-77
2020/12/23 07:07:37;;;;;;;3.87;2.20;;;;;;;12.02;100.00;100751.02;1772767;79;936610;-78
2020/12/23 07:10:17;;;;;;;3.95;1.82;;;;;;;11.93;100.00;100745.27;1761281;79;936693;-77
2020/12/23 07:12:50;;;;;;;3.57;2.30;;;;;;;12.11;100.00;100739.45;1772859;79;934727;-78
2020/12/23 07:15:23;;;;;;;5.23;2.30;;;;;;;11.93;100.00;100744.44;1772789;79;936580;-77
2020/12/23 07:17:54;;;;;;;4.83;2.07;;;;;;;11.92;100.00;100735.82;1761093;79;936572;-78
2020/12/23 07:20:25;;;;;;;4.40;1.93;;;;;;;11.94;100.00;100739.15;1772825;79;936627;-78
2020/12/23 07:22:55;;;;;;;3.47;2.22;;;;;;;11.91;100.00;100730.81;1761142;79;938666;-78
2020/12/23 07:25:27;;;;;;;3.27;2.00;;;;;;;12.15;100.00;100731.60;1772846;79;936650;-78
2020/12/23 07:27:59;;;;;;;3.60;2.03;;;;;;;12.07;100.00;100726.70;1761364;79;935879;-78
2020/12/23 07:30:29;;;;;;;2.17;1.97;;;;;;;11.97;100.00;100724.63;1772760;79;936547;-78
2020/12/23 07:33:04;;;;;;;5.50;2.50;;;;;;;12.16;100.00;100716.56;1761154;79;936557;-78
2020/12/23 07:35:35;;;;;;;5.37;2.40;;;;;;;12.12;100.00;100719.69;1772856;79;936799;-78
2020/12/23 07:38:07;;;;;;;3.27;2.63;;;;;;;12.13;100.00;100723.30;1761144;79;936631;-78
2020/12/23 07:40:37;;;;;;;6.17;3.10;;;;;;;12.21;100.00;100722.63;1772822;79;934660;-78
2020/12/23 07:43:08;;;;;;;4.83;2.75;;;;;;;12.24;100.00;100720.62;1761275;79;936531;-78
2020/12/23 07:45:38;;;;;;;4.53;2.80;;;;;;;12.17;100.00;100714.61;1772847;79;934572;-77
2020/12/23 07:48:10;;;;;;;6.37;3.00;;;;;;;12.19;100.00;100710.39;1761214;79;936527;-78
2020/12/23 07:50:43;;;;;;;3.83;2.47;;;;;;;12.19;100.00;100704.81;1772752;79;934717;-78
2020/12/23 07:53:15;;;;;;;5.67;2.53;;;;;;;12.27;100.00;100700.56;1761088;79;936885;-78
2020/12/23 07:55:46;;;;;;;5.50;2.70;;;;;;;12.29;100.00;100692.71;1772788;79;934685;-78
2020/12/23 07:58:16;;;;;;;4.13;2.63;;;;;;;12.25;100.00;100688.88;1772779;79;936529;-78
2020/12/23 08:00:46;;;;;;;6.53;2.60;;;;;;;12.21;100.00;100692.83;1772818;79;934635;-78
2020/12/23 08:03:18;;;;;;;5.57;2.77;;;;;;;12.32;100.00;100698.50;1772755;79;936549;-78
2020/12/23 08:05:48;;;;;;;7.87;2.50;;;;;;;12.26;100.00;100699.73;1772837;79;934861;-78
2020/12/23 08:08:27;;;;;;;4.43;2.33;;;;;;;12.32;100.00;100691.55;1772632;80;936565;-78
2020/12/23 08:10:56;;;;;;;6.28;2.92;;;;;;;12.32;100.00;100698.50;1761254;79;936781;-78
2020/12/23 08:13:28;;;;;;;4.50;2.47;;;;;;;12.28;100.00;100694.67;1772764;79;935545;-79
2020/12/23 08:16:09;;;;;;;6.25;2.83;;;;;;;12.25;100.00;100696.67;1761177;79;936730;-79
2020/12/23 08:18:40;;;;;;;8.40;2.97;;;;;;;12.32;100.00;100699.09;1772825;79;934958;-80
2020/12/23 08:21:12;;;;;;;6.20;2.57;;;;;;;12.39;100.00;100682.83;1761213;79;936692;-78
2020/12/23 08:23:43;;;;;;;5.97;2.17;;;;;;;12.35;100.00;100677.59;1772711;79;934880;-80
2020/12/23 08:26:14;;;;;;;7.03;2.50;;;;;;;12.39;100.00;100678.65;1761062;79;935806;-80
2020/12/23 08:28:45;;;;;;;5.63;2.80;;;;;;;12.44;100.00;100672.17;1772903;79;934843;-83
2020/12/23 08:31:18;;;;;;;6.27;2.43;;;;;;;12.40;100.00;100669.17;1772890;79;936626;-83
2020/12/23 08:33:50;;;;;;;5.57;3.10;;;;;;;12.42;100.00;100665.50;1772915;79;934776;-81
2020/12/23 08:36:24;;;;;;;5.63;2.30;;;;;;;12.42;100.00;100666.89;1772900;79;935543;-81
2020/12/23 08:38:54;;;;;;;7.00;2.57;;;;;;;12.46;100.00;100672.69;1761401;79;936564;-80
2020/12/23 08:41:27;;;;;;;7.43;2.70;;;;;;;12.41;100.00;100663.84;1773008;79;936659;-82
2020/12/23 08:43:58;;;;;;;6.28;2.42;;;;;;;12.43;100.00;100652.41;1761324;79;938537;-81
2020/12/23 08:46:29;;;;;;;6.93;2.63;;;;;;;12.45;100.00;100648.17;1772932;79;936635;-82
2020/12/23 08:49:00;;;;;;;4.77;2.30;;;;;;;12.47;100.00;100645.92;1761220;79;936699;-82
2020/12/23 08:51:31;;;;;;;5.83;2.13;;;;;;;12.46;100.00;100640.65;1772939;79;936573;-84
2020/12/23 08:54:02;;;;;;;7.97;2.50;;;;;;;12.48;100.00;100636.45;1761285;79;936790;-83
2020/12/23 08:56:33;;;;;;;4.63;2.60;;;;;;;12.46;100.00;100634.52;1773087;79;936943;-83
2020/12/23 08:59:05;;;;;;;5.07;2.23;;;;;;;12.48;100.00;100635.61;1761370;79;936612;-81
2020/12/23 09:01:36;;;;;;;7.47;2.43;;;;;;;12.51;100.00;100628.03;1772945;79;936889;-82
2020/12/23 09:04:11;;;;;;;8.10;2.52;;;;;;;12.52;100.00;100620.78;1761522;79;936616;-81
2020/12/23 09:06:43;;;;;;;5.23;2.30;;;;;;;12.55;100.00;100619.33;1772920;79;934401;-84
2020/12/23 09:09:17;;;;;;;3.40;2.17;;;;;;;12.57;100.00;100618.48;1761386;79;936677;-81
2020/12/23 09:11:48;;;;;;;4.30;2.63;;;;;;;12.57;100.00;100607.33;1772910;79;934617;-81
2020/12/23 09:14:20;;;;;;;5.07;2.57;;;;;;;12.61;100.00;100609.20;1772871;79;936695;-81
2020/12/23 09:16:55;;;;;;;4.47;2.87;;;;;;;12.64;100.00;100603.02;1766575;79;936703;-80
2020/12/23 09:19:44;;;;;;;6.50;2.87;;;;;;;12.63;100.00;100603.30;1738205;80;936762;-80
2020/12/23 09:22:16;;;;;;;4.97;3.17;;;;;;;12.66;100.00;100607.70;1761171;79;936849;-85
2020/12/23 09:24:46;;;;;;;4.77;3.10;;;;;;;12.68;100.00;100608.23;1773374;79;934690;-85
2020/12/23 09:27:25;;;;;;;8.20;3.47;;;;;;;12.69;100.00;100604.33;1772975;79;936735;-84
2020/12/23 09:29:55;;;;;;;6.75;3.50;;;;;;;12.69;100.00;100596.53;1758367;79;936737;-81
2020/12/23 09:32:27;;;;;;;5.67;3.60;;;;;;;12.69;100.00;100589.00;1732393;81;935532;-83
2020/12/23 09:35:12;;;;;;;7.90;4.25;;;;;;;12.75;100.00;100589.15;1721115;81;936690;-81
2020/12/23 09:37:43;;;;;;;7.90;5.00;;;;;;;12.78;100.00;100600.27;1738375;80;934716;-83
2020/12/23 09:40:14;;;;;;;10.77;6.17;;;;;;;12.75;100.00;100598.91;1727080;80;936594;-80
2020/12/23 09:42:46;;;;;;;13.58;6.47;;;;;;;12.78;100.00;100590.52;1738277;80;936990;-81
2020/12/23 09:45:15;;;;;;;9.83;6.27;;;;;;;12.79;100.00;100585.21;1773056;79;939360;-81
2020/12/23 09:47:46;;;;;;;10.00;6.13;;;;;;;12.88;100.00;100579.75;1773002;79;934813;-82
2020/12/23 09:50:16;;;;;;;11.10;5.87;;;;;;;12.90;100.00;100576.08;1772803;79;938737;-82
2020/12/23 09:52:46;;;;;;;9.60;4.80;;;;;;;12.91;100.00;100568.81;1772820;79;936734;-82
2020/12/23 09:55:16;;;;;;;10.23;5.57;;;;;;;12.92;100.00;100560.69;1772822;79;936575;-84
2020/12/23 09:57:46;;;;;;;5.43;3.93;;;;;;;12.90;100.00;100551.81;1772921;79;937317;-83
2020/12/23 10:00:17;;;;;;;5.33;3.70;;;;;;;12.91;100.00;100544.28;1772949;79;936445;-81
2020/12/23 10:02:47;;;;;;;6.23;3.93;;;;;;;12.94;100.00;100539.48;1773098;79;934921;-81
2020/12/23 10:05:17;;;;;;;9.57;4.40;;;;;;;12.95;100.00;100537.79;1772886;79;936516;-82
2020/12/23 10:07:48;;;;;;;6.60;4.60;;;;;;;12.96;100.00;100533.88;1773038;79;934726;-83
2020/12/23 10:10:17;;;;;;;8.47;5.00;;;;;;;12.99;100.00;100529.63;1772949;79;936561;-81
2020/12/23 10:12:47;;;;;;;10.13;5.13;;;;;;;13.06;100.00;100530.03;1773074;79;934791;-84
2020/12/23 10:15:17;;;;;;;9.03;5.30;;;;;;;13.07;100.00;100518.58;1773016;79;938774;-82
2020/12/23 10:17:47;;;;;;;10.10;5.53;;;;;;;13.12;100.00;100524.66;1772968;79;934501;-81
2020/12/23 10:20:17;;;;;;;9.83;5.87;;;;;;;13.14;100.00;100530.16;1773075;79;938629;-84
2020/12/23 10:22:47;;;;;;;5.83;5.07;;;;;;;13.16;100.00;100522.33;1773052;79;934757;-85
2020/12/23 10:25:17;;;;;;;8.57;5.33;;;;;;;13.20;100.00;100523.36;1773107;79;936576;-82
2020/12/23 10:27:46;;;;;;;10.63;5.73;;;;;;;13.29;100.00;100516.48;1773015;79;934602;-82
2020/12/23 10:30:16;;;;;;;9.77;4.77;;;;;;;13.26;100.00;100515.72;1772974;79;938517;-81
2020/12/23 10:32:46;;;;;;;6.20;5.10;;;;;;;13.26;100.00;100509.31;1772998;79;934728;-82
2020/12/23 10:35:34;;;;;;;9.30;5.00;;;;;;;13.28;100.00;100506.45;1772075;79;936803;-81
2020/12/23 10:38:33;;;;;;;6.22;4.20;;;;;;;13.32;100.00;100497.72;1738432;78;936625;-83
2020/12/23 10:44:40;;;;;;;5.13;3.57;;;;;;;13.48;100.00;100486.47;1689843;81;935573;-82
2020/12/23 10:48:03;;;;;;;6.60;2.97;;;;;;;13.56;100.00;100489.12;1697951;80;935570;-82
2020/12/23 10:50:49;;;;;;;4.63;2.60;;;;;;;13.71;100.00;100480.94;1690214;81;935774;-82
2020/12/23 10:53:14;;;;;;;3.27;2.10;;;;;;;13.85;100.00;100480.33;1724792;76;935655;-81
2020/12/23 10:55:44;;;;;;;4.67;2.17;;;;;;;13.81;100.00;100477.92;1742768;79;933624;-80
2020/12/23 10:58:14;;;;;;;6.80;2.40;;;;;;;13.82;100.00;100474.00;1731164;79;935637;-81
2020/12/23 11:00:44;;;;;;;3.63;1.77;;;;;;;13.74;100.00;100467.17;1742600;79;933892;-80
2020/12/23 11:03:14;;;;;;;3.73;1.90;;;;;;;13.65;100.00;100463.48;1731306;79;935620;-80
2020/12/23 11:05:44;;;;;;;6.75;2.27;;;;;;;13.66;100.00;100456.77;1742661;79;933783;-80
2020/12/23 11:08:14;;;;;;;5.83;2.23;;;;;;;13.72;100.00;100449.11;1731169;79;935632;-80
2020/12/23 11:10:45;;;;;;;4.90;2.30;;;;;;;13.67;100.00;100448.66;1742540;79;933631;-80
2020/12/23 11:13:15;;;;;;;5.87;2.50;;;;;;;13.65;100.00;100433.61;1742636;79;936007;-79
2020/12/23 11:15:45;;;;;;;5.67;2.40;;;;;;;13.66;100.00;100429.69;1742723;79;933741;-79
2020/12/23 11:18:15;;;;;;;6.23;2.43;;;;;;;13.67;100.00;100422.97;1731168;79;936087;-80
2020/12/23 11:20:44;;;;;;;7.30;2.10;;;;;;;13.69;100.00;100425.45;1742580;79;933943;-80
2020/12/23 11:23:25;;;;;;;7.03;1.60;;;;;;;13.68;100.00;100421.00;1731203;79;935673;-79
2020/12/23 11:25:55;;;;;;;5.47;1.70;;;;;;;13.67;100.00;100427.16;1731107;79;935515;-80
2020/12/23 11:28:25;;;;;;;5.30;1.33;;;;;;;13.68;100.00;100412.63;1742624;79;935670;-81
2020/12/23 11:30:59;;;;;;;6.12;1.72;;;;;;;13.68;100.00;100413.46;1731343;79;935668;-81